Terminal Aerodrome Forecast
Issued by NWS Portland, OR

Home | Current Version | Previous Version | Text Only | Print | Product List | Glossary On
Versions: 1 2 3 4 5 6 7 8 9 10 11 12 13 14 15 16 17 18
000
FTUS46 KPQR 241907 AAA
TAFEUG
TAF AMD
KEUG 241907Z 2419/2518 19011KT P6SM -SHRA SCT015 OVC045
      TEMPO 2419/2422 -SHRA BKN017
     FM242200 19007KT P6SM -SHRA SCT025 BKN045=

USA.gov is the U.S. government's official web portal to all federal, state and local government web resources and services.